sensor_id;sensor_type;location;lat;lon;timestamp;P1;durP1;ratioP1;P2;durP2;ratioP2
48667;SDS011;34453;52.198;5.004;2023-04-27T00:02:23;7.57;;;5.78;;
48667;SDS011;34453;52.198;5.004;2023-04-27T00:04:49;13.02;;;5.82;;
48667;SDS011;34453;52.198;5.004;2023-04-27T00:07:15;5.78;;;5.28;;
48667;SDS011;34453;52.198;5.004;2023-04-27T00:09:40;8.73;;;4.95;;
48667;SDS011;34453;52.198;5.004;2023-04-27T00:12:06;12.35;;;6.20;;
48667;SDS011;34453;52.198;5.004;2023-04-27T00:14:31;9.43;;;5.57;;
48667;SDS011;34453;52.198;5.004;2023-04-27T00:16:57;6.60;;;6.00;;
48667;SDS011;34453;52.198;5.004;2023-04-27T00:19:22;4.65;;;4.35;;
48667;SDS011;34453;52.198;5.004;2023-04-27T00:21:48;6.25;;;5.65;;
48667;SDS011;34453;52.198;5.004;2023-04-27T00:24:13;7.85;;;4.53;;
48667;SDS011;34453;52.198;5.004;2023-04-27T00:26:38;7.50;;;4.85;;
48667;SDS011;34453;52.198;5.004;2023-04-27T00:29:04;5.05;;;4.18;;
48667;SDS011;34453;52.198;5.004;2023-04-27T00:31:29;7.90;;;5.03;;
48667;SDS011;34453;52.198;5.004;2023-04-27T00:33:55;6.50;;;4.25;;
48667;SDS011;34453;52.198;5.004;2023-04-27T00:36:20;4.20;;;3.42;;
48667;SDS011;34453;52.198;5.004;2023-04-27T00:38:45;5.82;;;4.85;;
48667;SDS011;34453;52.198;5.004;2023-04-27T00:41:11;39.58;;;6.30;;
48667;SDS011;34453;52.198;5.004;2023-04-27T00:43:40;4.97;;;4.45;;
48667;SDS011;34453;52.198;5.004;2023-04-27T00:46:07;13.57;;;4.63;;
48667;SDS011;34453;52.198;5.004;2023-04-27T00:48:34;5.05;;;4.65;;
48667;SDS011;34453;52.198;5.004;2023-04-27T00:50:59;16.65;;;4.95;;
48667;SDS011;34453;52.198;5.004;2023-04-27T00:53:24;10.55;;;5.18;;
48667;SDS011;34453;52.198;5.004;2023-04-27T00:55:51;3.70;;;3.40;;
48667;SDS011;34453;52.198;5.004;2023-04-27T00:58:16;2.25;;;2.15;;
48667;SDS011;34453;52.198;5.004;2023-04-27T01:00:41;3.42;;;2.20;;
48667;SDS011;34453;52.198;5.004;2023-04-27T01:03:07;3.10;;;2.75;;
48667;SDS011;34453;52.198;5.004;2023-04-27T01:05:33;5.50;;;3.28;;
48667;SDS011;34453;52.198;5.004;2023-04-27T01:08:01;4.43;;;4.13;;
48667;SDS011;34453;52.198;5.004;2023-04-27T01:10:27;5.60;;;4.38;;
48667;SDS011;34453;52.198;5.004;2023-04-27T01:12:52;2.72;;;2.53;;
48667;SDS011;34453;52.198;5.004;2023-04-27T01:15:17;1.60;;;1.50;;
48667;SDS011;34453;52.198;5.004;2023-04-27T01:17:43;3.33;;;0.90;;
48667;SDS011;34453;52.198;5.004;2023-04-27T01:20:08;1.45;;;1.45;;
48667;SDS011;34453;52.198;5.004;2023-04-27T01:22:35;1.15;;;1.00;;
48667;SDS011;34453;52.198;5.004;2023-04-27T01:25:01;9.70;;;1.70;;
48667;SDS011;34453;52.198;5.004;2023-04-27T01:27:26;3.75;;;0.77;;
48667;SDS011;34453;52.198;5.004;2023-04-27T01:29:51;0.95;;;0.88;;
48667;SDS011;34453;52.198;5.004;2023-04-27T01:32:17;1.20;;;1.20;;
48667;SDS011;34453;52.198;5.004;2023-04-27T01:34:42;1.95;;;0.93;;
48667;SDS011;34453;52.198;5.004;2023-04-27T01:37:07;1.15;;;1.15;;
48667;SDS011;34453;52.198;5.004;2023-04-27T01:39:33;1.58;;;1.50;;
48667;SDS011;34453;52.198;5.004;2023-04-27T01:41:58;1.05;;;1.05;;
48667;SDS011;34453;52.198;5.004;2023-04-27T01:44:24;1.38;;;0.80;;
48667;SDS011;34453;52.198;5.004;2023-04-27T01:46:50;1.60;;;1.30;;
48667;SDS011;34453;52.198;5.004;2023-04-27T01:49:15;2.72;;;2.47;;
48667;SDS011;34453;52.198;5.004;2023-04-27T01:51:41;4.30;;;3.92;;
48667;SDS011;34453;52.198;5.004;2023-04-27T01:54:06;3.80;;;3.60;;
48667;SDS011;34453;52.198;5.004;2023-04-27T01:56:32;12.00;;;4.13;;
48667;SDS011;34453;52.198;5.004;2023-04-27T01:58:57;14.02;;;5.25;;
48667;SDS011;34453;52.198;5.004;2023-04-27T02:01:22;5.22;;;4.78;;
48667;SDS011;34453;52.198;5.004;2023-04-27T02:03:48;7.38;;;5.85;;
48667;SDS011;34453;52.198;5.004;2023-04-27T02:06:13;9.82;;;6.38;;
48667;SDS011;34453;52.198;5.004;2023-04-27T02:08:39;7.97;;;5.35;;
48667;SDS011;34453;52.198;5.004;2023-04-27T02:11:04;9.18;;;6.35;;
48667;SDS011;34453;52.198;5.004;2023-04-27T02:13:30;7.15;;;6.45;;
48667;SDS011;34453;52.198;5.004;2023-04-27T02:15:55;8.20;;;5.80;;
48667;SDS011;34453;52.198;5.004;2023-04-27T02:18:20;8.40;;;6.50;;
48667;SDS011;34453;52.198;5.004;2023-04-27T02:20:46;9.60;;;6.50;;
48667;SDS011;34453;52.198;5.004;2023-04-27T02:23:11;6.47;;;5.80;;
48667;SDS011;34453;52.198;5.004;2023-04-27T02:25:37;6.78;;;5.68;;
48667;SDS011;34453;52.198;5.004;2023-04-27T02:28:03;6.28;;;5.78;;
48667;SDS011;34453;52.198;5.004;2023-04-27T02:30:28;7.00;;;6.15;;
48667;SDS011;34453;52.198;5.004;2023-04-27T02:32:54;11.57;;;5.78;;
48667;SDS011;34453;52.198;5.004;2023-04-27T02:35:20;12.70;;;6.78;;
48667;SDS011;34453;52.198;5.004;2023-04-27T02:37:45;5.72;;;5.18;;
48667;SDS011;34453;52.198;5.004;2023-04-27T02:40:11;6.20;;;5.75;;
48667;SDS011;34453;52.198;5.004;2023-04-27T02:42:36;10.57;;;5.18;;
48667;SDS011;34453;52.198;5.004;2023-04-27T02:45:05;8.70;;;5.20;;
48667;SDS011;34453;52.198;5.004;2023-04-27T02:47:31;9.02;;;4.78;;
48667;SDS011;34453;52.198;5.004;2023-04-27T02:49:56;9.43;;;5.05;;
48667;SDS011;34453;52.198;5.004;2023-04-27T02:52:22;6.60;;;5.28;;
48667;SDS011;34453;52.198;5.004;2023-04-27T02:54:47;5.40;;;4.28;;
48667;SDS011;34453;52.198;5.004;2023-04-27T02:57:13;7.93;;;5.70;;
48667;SDS011;34453;52.198;5.004;2023-04-27T02:59:38;10.43;;;5.25;;
48667;SDS011;34453;52.198;5.004;2023-04-27T03:02:04;10.35;;;4.82;;
48667;SDS011;34453;52.198;5.004;2023-04-27T03:04:29;5.68;;;5.18;;
48667;SDS011;34453;52.198;5.004;2023-04-27T03:06:54;11.32;;;5.13;;
48667;SDS011;34453;52.198;5.004;2023-04-27T03:09:20;5.38;;;4.55;;
48667;SDS011;34453;52.198;5.004;2023-04-27T03:11:45;8.10;;;5.28;;
48667;SDS011;34453;52.198;5.004;2023-04-27T03:14:11;11.02;;;5.32;;
48667;SDS011;34453;52.198;5.004;2023-04-27T03:16:37;11.43;;;5.18;;
48667;SDS011;34453;52.198;5.004;2023-04-27T03:19:05;8.02;;;4.65;;
48667;SDS011;34453;52.198;5.004;2023-04-27T03:21:31;5.25;;;4.75;;
48667;SDS011;34453;52.198;5.004;2023-04-27T03:23:57;5.28;;;4.78;;
48667;SDS011;34453;52.198;5.004;2023-04-27T03:26:22;8.63;;;4.68;;
48667;SDS011;34453;52.198;5.004;2023-04-27T03:28:47;6.20;;;4.55;;
48667;SDS011;34453;52.198;5.004;2023-04-27T03:31:13;9.40;;;4.55;;
48667;SDS011;34453;52.198;5.004;2023-04-27T03:33:39;4.57;;;4.22;;
48667;SDS011;34453;52.198;5.004;2023-04-27T03:36:05;7.82;;;5.03;;
48667;SDS011;34453;52.198;5.004;2023-04-27T03:38:32;11.10;;;4.47;;
48667;SDS011;34453;52.198;5.004;2023-04-27T03:40:58;6.05;;;3.97;;
48667;SDS011;34453;52.198;5.004;2023-04-27T03:43:24;9.88;;;4.55;;
48667;SDS011;34453;52.198;5.004;2023-04-27T03:45:50;4.68;;;3.70;;
48667;SDS011;34453;52.198;5.004;2023-04-27T03:48:15;5.20;;;4.28;;
48667;SDS011;34453;52.198;5.004;2023-04-27T03:50:42;5.88;;;5.10;;
48667;SDS011;34453;52.198;5.004;2023-04-27T03:53:08;4.82;;;4.18;;
48667;SDS011;34453;52.198;5.004;2023-04-27T03:55:36;8.25;;;5.38;;
48667;SDS011;34453;52.198;5.004;2023-04-27T03:58:03;5.15;;;4.75;;
48667;SDS011;34453;52.198;5.004;2023-04-27T04:00:28;4.95;;;4.55;;
48667;SDS011;34453;52.198;5.004;2023-04-27T04:02:53;6.95;;;5.15;;
48667;SDS011;34453;52.198;5.004;2023-04-27T04:05:19;14.75;;;5.38;;
48667;SDS011;34453;52.198;5.004;2023-04-27T04:07:45;5.35;;;4.57;;
48667;SDS011;34453;52.198;5.004;2023-04-27T04:10:10;13.95;;;5.57;;
48667;SDS011;34453;52.198;5.004;2023-04-27T04:12:35;8.38;;;5.60;;
48667;SDS011;34453;52.198;5.004;2023-04-27T04:15:04;9.95;;;6.18;;
48667;SDS011;34453;52.198;5.004;2023-04-27T04:17:29;8.38;;;5.38;;
48667;SDS011;34453;52.198;5.004;2023-04-27T04:19:55;8.93;;;5.70;;
48667;SDS011;34453;52.198;5.004;2023-04-27T04:22:20;9.95;;;5.38;;
48667;SDS011;34453;52.198;5.004;2023-04-27T04:24:46;6.20;;;5.03;;
48667;SDS011;34453;52.198;5.004;2023-04-27T04:27:11;5.30;;;4.78;;
48667;SDS011;34453;52.198;5.004;2023-04-27T04:29:37;5.95;;;5.05;;
48667;SDS011;34453;52.198;5.004;2023-04-27T04:32:03;10.15;;;5.28;;
48667;SDS011;34453;52.198;5.004;2023-04-27T04:34:29;7.35;;;4.60;;
48667;SDS011;34453;52.198;5.004;2023-04-27T04:36:54;6.78;;;4.57;;
48667;SDS011;34453;52.198;5.004;2023-04-27T04:39:21;7.60;;;4.70;;
48667;SDS011;34453;52.198;5.004;2023-04-27T04:41:47;6.10;;;5.22;;
48667;SDS011;34453;52.198;5.004;2023-04-27T04:44:13;5.82;;;5.15;;
48667;SDS011;34453;52.198;5.004;2023-04-27T04:46:44;11.43;;;4.80;;
48667;SDS011;34453;52.198;5.004;2023-04-27T04:49:10;8.50;;;5.40;;
48667;SDS011;34453;52.198;5.004;2023-04-27T04:51:35;7.40;;;4.82;;
48667;SDS011;34453;52.198;5.004;2023-04-27T04:54:01;6.88;;;5.45;;
48667;SDS011;34453;52.198;5.004;2023-04-27T04:56:26;6.55;;;5.68;;
48667;SDS011;34453;52.198;5.004;2023-04-27T04:58:52;8.57;;;5.35;;
48667;SDS011;34453;52.198;5.004;2023-04-27T05:01:17;11.45;;;6.15;;
48667;SDS011;34453;52.198;5.004;2023-04-27T05:03:43;10.07;;;5.50;;
48667;SDS011;34453;52.198;5.004;2023-04-27T05:06:08;9.68;;;5.80;;
48667;SDS011;34453;52.198;5.004;2023-04-27T05:08:33;12.40;;;6.30;;
48667;SDS011;34453;52.198;5.004;2023-04-27T05:10:59;7.78;;;5.28;;
48667;SDS011;34453;52.198;5.004;2023-04-27T05:13:25;16.13;;;6.93;;
48667;SDS011;34453;52.198;5.004;2023-04-27T05:15:51;14.23;;;6.45;;
48667;SDS011;34453;52.198;5.004;2023-04-27T05:18:17;9.65;;;5.40;;
48667;SDS011;34453;52.198;5.004;2023-04-27T05:20:42;10.25;;;5.80;;
48667;SDS011;34453;52.198;5.004;2023-04-27T05:23:08;7.43;;;5.28;;
48667;SDS011;34453;52.198;5.004;2023-04-27T05:25:33;12.13;;;5.88;;
48667;SDS011;34453;52.198;5.004;2023-04-27T05:28:05;9.27;;;5.28;;
48667;SDS011;34453;52.198;5.004;2023-04-27T05:30:34;6.85;;;4.97;;
48667;SDS011;34453;52.198;5.004;2023-04-27T05:33:00;8.25;;;5.30;;
48667;SDS011;34453;52.198;5.004;2023-04-27T05:35:26;10.07;;;5.28;;
48667;SDS011;34453;52.198;5.004;2023-04-27T05:37:51;6.72;;;5.85;;
48667;SDS011;34453;52.198;5.004;2023-04-27T05:40:17;9.65;;;5.13;;
48667;SDS011;34453;52.198;5.004;2023-04-27T05:42:44;7.03;;;5.45;;
48667;SDS011;34453;52.198;5.004;2023-04-27T05:45:10;5.88;;;5.28;;
48667;SDS011;34453;52.198;5.004;2023-04-27T05:47:36;9.98;;;5.28;;
48667;SDS011;34453;52.198;5.004;2023-04-27T05:50:01;6.13;;;5.10;;
48667;SDS011;34453;52.198;5.004;2023-04-27T05:52:27;7.40;;;5.00;;
48667;SDS011;34453;52.198;5.004;2023-04-27T05:54:55;7.25;;;4.70;;
48667;SDS011;34453;52.198;5.004;2023-04-27T05:57:21;11.27;;;4.53;;
48667;SDS011;34453;52.198;5.004;2023-04-27T05:59:47;12.98;;;4.88;;
48667;SDS011;34453;52.198;5.004;2023-04-27T06:02:12;6.10;;;4.88;;
48667;SDS011;34453;52.198;5.004;2023-04-27T06:04:37;6.78;;;4.30;;
48667;SDS011;34453;52.198;5.004;2023-04-27T06:07:09;4.80;;;4.22;;
48667;SDS011;34453;52.198;5.004;2023-04-27T06:09:36;5.07;;;4.60;;
48667;SDS011;34453;52.198;5.004;2023-04-27T06:12:02;9.15;;;4.88;;
48667;SDS011;34453;52.198;5.004;2023-04-27T06:14:31;6.35;;;5.10;;
48667;SDS011;34453;52.198;5.004;2023-04-27T06:16:57;10.40;;;4.60;;
48667;SDS011;34453;52.198;5.004;2023-04-27T06:19:23;8.95;;;4.35;;
48667;SDS011;34453;52.198;5.004;2023-04-27T06:21:49;7.97;;;3.75;;
48667;SDS011;34453;52.198;5.004;2023-04-27T06:24:15;9.90;;;4.05;;
48667;SDS011;34453;52.198;5.004;2023-04-27T06:26:40;6.70;;;4.18;;
48667;SDS011;34453;52.198;5.004;2023-04-27T06:29:05;5.57;;;3.10;;
48667;SDS011;34453;52.198;5.004;2023-04-27T06:31:32;4.95;;;4.00;;
48667;SDS011;34453;52.198;5.004;2023-04-27T06:33:58;6.85;;;4.25;;
48667;SDS011;34453;52.198;5.004;2023-04-27T06:36:24;4.07;;;3.42;;
48667;SDS011;34453;52.198;5.004;2023-04-27T06:38:50;7.45;;;3.38;;
48667;SDS011;34453;52.198;5.004;2023-04-27T06:41:19;6.90;;;2.92;;
48667;SDS011;34453;52.198;5.004;2023-04-27T06:43:45;8.60;;;3.35;;
48667;SDS011;34453;52.198;5.004;2023-04-27T06:46:10;6.57;;;3.70;;
48667;SDS011;34453;52.198;5.004;2023-04-27T06:48:36;9.00;;;3.42;;
48667;SDS011;34453;52.198;5.004;2023-04-27T06:51:01;5.63;;;3.03;;
48667;SDS011;34453;52.198;5.004;2023-04-27T06:53:26;6.13;;;3.25;;
48667;SDS011;34453;52.198;5.004;2023-04-27T06:55:52;3.22;;;3.08;;
48667;SDS011;34453;52.198;5.004;2023-04-27T06:58:17;12.15;;;3.60;;
48667;SDS011;34453;52.198;5.004;2023-04-27T07:00:43;5.63;;;3.15;;
48667;SDS011;34453;52.198;5.004;2023-04-27T07:03:08;12.35;;;4.07;;
48667;SDS011;34453;52.198;5.004;2023-04-27T07:05:33;5.60;;;3.10;;
48667;SDS011;34453;52.198;5.004;2023-04-27T07:07:59;5.22;;;3.00;;
48667;SDS011;34453;52.198;5.004;2023-04-27T07:10:24;11.05;;;3.55;;
48667;SDS011;34453;52.198;5.004;2023-04-27T07:12:50;4.80;;;2.72;;
48667;SDS011;34453;52.198;5.004;2023-04-27T07:15:15;3.28;;;2.33;;
48667;SDS011;34453;52.198;5.004;2023-04-27T07:17:41;2.95;;;2.75;;
48667;SDS011;34453;52.198;5.004;2023-04-27T07:20:06;7.43;;;2.90;;
48667;SDS011;34453;52.198;5.004;2023-04-27T07:22:33;3.53;;;2.60;;
48667;SDS011;34453;52.198;5.004;2023-04-27T07:24:58;4.00;;;2.50;;
48667;SDS011;34453;52.198;5.004;2023-04-27T07:27:23;2.83;;;2.15;;
48667;SDS011;34453;52.198;5.004;2023-04-27T07:29:50;2.35;;;2.15;;
48667;SDS011;34453;52.198;5.004;2023-04-27T07:32:16;3.80;;;2.13;;
48667;SDS011;34453;52.198;5.004;2023-04-27T07:34:41;10.68;;;2.35;;
48667;SDS011;34453;52.198;5.004;2023-04-27T07:37:07;2.20;;;2.10;;
48667;SDS011;34453;52.198;5.004;2023-04-27T07:39:35;5.47;;;2.13;;
48667;SDS011;34453;52.198;5.004;2023-04-27T07:42:01;5.35;;;2.05;;
48667;SDS011;34453;52.198;5.004;2023-04-27T07:44:27;4.90;;;3.20;;
48667;SDS011;34453;52.198;5.004;2023-04-27T07:46:52;2.00;;;1.73;;
48667;SDS011;34453;52.198;5.004;2023-04-27T07:49:19;6.63;;;2.65;;
48667;SDS011;34453;52.198;5.004;2023-04-27T07:51:44;5.30;;;2.13;;
48667;SDS011;34453;52.198;5.004;2023-04-27T07:54:10;2.63;;;1.88;;
48667;SDS011;34453;52.198;5.004;2023-04-27T07:56:35;2.40;;;2.28;;
48667;SDS011;34453;52.198;5.004;2023-04-27T07:59:01;6.50;;;3.10;;
48667;SDS011;34453;52.198;5.004;2023-04-27T08:01:26;3.90;;;2.22;;
48667;SDS011;34453;52.198;5.004;2023-04-27T08:03:52;6.10;;;1.77;;
48667;SDS011;34453;52.198;5.004;2023-04-27T08:06:18;4.35;;;2.05;;
48667;SDS011;34453;52.198;5.004;2023-04-27T08:08:44;3.80;;;2.13;;
48667;SDS011;34453;52.198;5.004;2023-04-27T08:11:10;3.22;;;2.17;;
48667;SDS011;34453;52.198;5.004;2023-04-27T08:13:36;2.92;;;2.63;;
48667;SDS011;34453;52.198;5.004;2023-04-27T08:16:02;5.82;;;2.20;;
48667;SDS011;34453;52.198;5.004;2023-04-27T08:18:27;2.40;;;2.30;;
48667;SDS011;34453;52.198;5.004;2023-04-27T08:20:53;4.20;;;2.42;;
48667;SDS011;34453;52.198;5.004;2023-04-27T08:23:19;4.70;;;3.15;;
48667;SDS011;34453;52.198;5.004;2023-04-27T08:25:50;4.70;;;1.88;;
48667;SDS011;34453;52.198;5.004;2023-04-27T08:28:16;4.15;;;2.65;;
48667;SDS011;34453;52.198;5.004;2023-04-27T08:30:41;4.97;;;2.58;;
48667;SDS011;34453;52.198;5.004;2023-04-27T08:33:07;5.85;;;2.78;;
48667;SDS011;34453;52.198;5.004;2023-04-27T08:35:32;8.90;;;2.28;;
48667;SDS011;34453;52.198;5.004;2023-04-27T08:37:58;7.80;;;3.35;;
48667;SDS011;34453;52.198;5.004;2023-04-27T08:40:23;7.10;;;2.97;;
48667;SDS011;34453;52.198;5.004;2023-04-27T08:42:53;7.63;;;3.30;;
48667;SDS011;34453;52.198;5.004;2023-04-27T08:45:23;6.55;;;4.32;;
48667;SDS011;34453;52.198;5.004;2023-04-27T08:47:50;7.72;;;2.38;;
48667;SDS011;34453;52.198;5.004;2023-04-27T08:50:16;3.30;;;2.38;;
48667;SDS011;34453;52.198;5.004;2023-04-27T08:52:45;4.93;;;2.60;;
48667;SDS011;34453;52.198;5.004;2023-04-27T08:55:11;2.25;;;2.05;;
48667;SDS011;34453;52.198;5.004;2023-04-27T08:57:37;8.05;;;3.08;;
48667;SDS011;34453;52.198;5.004;2023-04-27T09:00:03;3.75;;;2.50;;
48667;SDS011;34453;52.198;5.004;2023-04-27T09:02:46;7.25;;;2.88;;
48667;SDS011;34453;52.198;5.004;2023-04-27T09:05:16;3.35;;;2.60;;
48667;SDS011;34453;52.198;5.004;2023-04-27T09:08:04;4.38;;;2.60;;
48667;SDS011;34453;52.198;5.004;2023-04-27T09:10:48;7.22;;;2.42;;
48667;SDS011;34453;52.198;5.004;2023-04-27T09:13:15;6.07;;;2.50;;
48667;SDS011;34453;52.198;5.004;2023-04-27T09:15:44;3.45;;;3.05;;
48667;SDS011;34453;52.198;5.004;2023-04-27T09:18:14;2.83;;;2.63;;
48667;SDS011;34453;52.198;5.004;2023-04-27T09:20:45;3.60;;;2.53;;
48667;SDS011;34453;52.198;5.004;2023-04-27T09:23:23;4.05;;;2.28;;
48667;SDS011;34453;52.198;5.004;2023-04-27T09:25:59;12.85;;;4.15;;
48667;SDS011;34453;52.198;5.004;2023-04-27T09:28:26;4.75;;;2.65;;
48667;SDS011;34453;52.198;5.004;2023-04-27T09:30:53;4.82;;;3.08;;
48667;SDS011;34453;52.198;5.004;2023-04-27T09:33:27;5.72;;;3.03;;
48667;SDS011;34453;52.198;5.004;2023-04-27T09:35:55;2.50;;;2.25;;
48667;SDS011;34453;52.198;5.004;2023-04-27T09:38:22;4.38;;;3.30;;
48667;SDS011;34453;52.198;5.004;2023-04-27T09:40:48;4.60;;;3.10;;
48667;SDS011;34453;52.198;5.004;2023-04-27T09:43:15;7.22;;;3.95;;
48667;SDS011;34453;52.198;5.004;2023-04-27T09:45:40;2.58;;;2.42;;
48667;SDS011;34453;52.198;5.004;2023-04-27T09:48:06;3.00;;;2.80;;
48667;SDS011;34453;52.198;5.004;2023-04-27T09:50:36;3.40;;;2.80;;
48667;SDS011;34453;52.198;5.004;2023-04-27T09:53:04;6.72;;;2.95;;
48667;SDS011;34453;52.198;5.004;2023-04-27T09:56:15;4.00;;;3.00;;
48667;SDS011;34453;52.198;5.004;2023-04-27T10:09:41;6.65;;;3.28;;
48667;SDS011;34453;52.198;5.004;2023-04-27T10:12:21;3.65;;;3.33;;
48667;SDS011;34453;52.198;5.004;2023-04-27T10:14:58;3.30;;;2.97;;
48667;SDS011;34453;52.198;5.004;2023-04-27T10:19:58;4.97;;;2.95;;
48667;SDS011;34453;52.198;5.004;2023-04-27T10:22:36;4.60;;;3.25;;
48667;SDS011;34453;52.198;5.004;2023-04-27T10:28:20;5.13;;;3.20;;
48667;SDS011;34453;52.198;5.004;2023-04-27T10:30:47;5.78;;;3.10;;
48667;SDS011;34453;52.198;5.004;2023-04-27T10:33:17;8.07;;;3.00;;
48667;SDS011;34453;52.198;5.004;2023-04-27T10:35:44;7.45;;;3.03;;
48667;SDS011;34453;52.198;5.004;2023-04-27T10:38:26;4.95;;;3.00;;
48667;SDS011;34453;52.198;5.004;2023-04-27T10:43:24;3.15;;;2.85;;
48667;SDS011;34453;52.198;5.004;2023-04-27T10:45:51;6.88;;;3.28;;
48667;SDS011;34453;52.198;5.004;2023-04-27T10:48:17;9.20;;;8.18;;
48667;SDS011;34453;52.198;5.004;2023-04-27T10:50:42;7.53;;;3.40;;
48667;SDS011;34453;52.198;5.004;2023-04-27T10:53:08;4.82;;;3.47;;
48667;SDS011;34453;52.198;5.004;2023-04-27T10:55:34;3.10;;;2.90;;
48667;SDS011;34453;52.198;5.004;2023-04-27T10:58:00;4.72;;;2.97;;
48667;SDS011;34453;52.198;5.004;2023-04-27T11:00:39;6.18;;;2.83;;
48667;SDS011;34453;52.198;5.004;2023-04-27T11:06:03;3.50;;;3.22;;
48667;SDS011;34453;52.198;5.004;2023-04-27T11:08:30;5.28;;;3.15;;
48667;SDS011;34453;52.198;5.004;2023-04-27T11:10:56;5.88;;;3.38;;
48667;SDS011;34453;52.198;5.004;2023-04-27T11:13:23;7.63;;;3.35;;
48667;SDS011;34453;52.198;5.004;2023-04-27T11:15:55;3.85;;;3.65;;
48667;SDS011;34453;52.198;5.004;2023-04-27T11:18:24;3.70;;;2.92;;
48667;SDS011;34453;52.198;5.004;2023-04-27T11:20:51;4.00;;;3.08;;
48667;SDS011;34453;52.198;5.004;2023-04-27T11:23:22;3.60;;;3.30;;
48667;SDS011;34453;52.198;5.004;2023-04-27T11:26:07;5.75;;;3.03;;
48667;SDS011;34453;52.198;5.004;2023-04-27T11:28:38;3.78;;;3.30;;
48667;SDS011;34453;52.198;5.004;2023-04-27T11:31:04;3.10;;;2.90;;
48667;SDS011;34453;52.198;5.004;2023-04-27T11:33:30;4.32;;;3.22;;
48667;SDS011;34453;52.198;5.004;2023-04-27T11:35:56;4.00;;;3.60;;
48667;SDS011;34453;52.198;5.004;2023-04-27T11:38:22;8.60;;;2.80;;
48667;SDS011;34453;52.198;5.004;2023-04-27T11:43:25;3.67;;;3.38;;
48667;SDS011;34453;52.198;5.004;2023-04-27T11:45:51;4.32;;;3.40;;
48667;SDS011;34453;52.198;5.004;2023-04-27T11:48:18;5.03;;;3.22;;
48667;SDS011;34453;52.198;5.004;2023-04-27T11:50:47;7.65;;;3.50;;
48667;SDS011;34453;52.198;5.004;2023-04-27T11:53:13;6.72;;;3.42;;
48667;SDS011;34453;52.198;5.004;2023-04-27T11:55:38;7.00;;;3.55;;
48667;SDS011;34453;52.198;5.004;2023-04-27T11:58:05;3.75;;;2.95;;
48667;SDS011;34453;52.198;5.004;2023-04-27T12:00:37;3.58;;;2.97;;
48667;SDS011;34453;52.198;5.004;2023-04-27T12:03:02;5.68;;;3.83;;
48667;SDS011;34453;52.198;5.004;2023-04-27T12:05:28;10.15;;;3.83;;
48667;SDS011;34453;52.198;5.004;2023-04-27T12:07:53;6.38;;;3.08;;
48667;SDS011;34453;52.198;5.004;2023-04-27T12:10:19;4.75;;;3.33;;
48667;SDS011;34453;52.198;5.004;2023-04-27T12:12:44;6.82;;;3.75;;
48667;SDS011;34453;52.198;5.004;2023-04-27T12:15:10;5.65;;;2.47;;
48667;SDS011;34453;52.198;5.004;2023-04-27T12:17:36;5.80;;;3.10;;
48667;SDS011;34453;52.198;5.004;2023-04-27T12:20:03;6.82;;;3.80;;
48667;SDS011;34453;52.198;5.004;2023-04-27T12:22:29;4.60;;;3.40;;
48667;SDS011;34453;52.198;5.004;2023-04-27T12:24:54;4.35;;;3.47;;
48667;SDS011;34453;52.198;5.004;2023-04-27T12:27:20;4.85;;;2.97;;
48667;SDS011;34453;52.198;5.004;2023-04-27T12:29:45;3.53;;;3.28;;
48667;SDS011;34453;52.198;5.004;2023-04-27T12:32:10;3.13;;;2.63;;
48667;SDS011;34453;52.198;5.004;2023-04-27T12:34:36;4.90;;;3.17;;
48667;SDS011;34453;52.198;5.004;2023-04-27T12:37:03;4.10;;;2.80;;
48667;SDS011;34453;52.198;5.004;2023-04-27T12:39:29;3.55;;;3.08;;
48667;SDS011;34453;52.198;5.004;2023-04-27T12:41:54;5.65;;;3.40;;
48667;SDS011;34453;52.198;5.004;2023-04-27T12:44:20;4.15;;;3.38;;
48667;SDS011;34453;52.198;5.004;2023-04-27T12:46:46;3.58;;;3.28;;
48667;SDS011;34453;52.198;5.004;2023-04-27T12:49:14;4.18;;;3.75;;
48667;SDS011;34453;52.198;5.004;2023-04-27T12:51:40;6.03;;;3.03;;
48667;SDS011;34453;52.198;5.004;2023-04-27T12:54:07;5.03;;;3.78;;
48667;SDS011;34453;52.198;5.004;2023-04-27T12:56:33;6.47;;;3.53;;
48667;SDS011;34453;52.198;5.004;2023-04-27T12:58:59;3.85;;;3.42;;
48667;SDS011;34453;52.198;5.004;2023-04-27T13:01:25;5.18;;;3.45;;
48667;SDS011;34453;52.198;5.004;2023-04-27T13:03:54;4.32;;;2.85;;
48667;SDS011;34453;52.198;5.004;2023-04-27T13:06:23;6.50;;;2.95;;
48667;SDS011;34453;52.198;5.004;2023-04-27T13:08:48;8.38;;;3.65;;
48667;SDS011;34453;52.198;5.004;2023-04-27T13:11:15;3.67;;;3.38;;
48667;SDS011;34453;52.198;5.004;2023-04-27T13:13:41;5.82;;;3.40;;
48667;SDS011;34453;52.198;5.004;2023-04-27T13:16:06;4.00;;;2.90;;
48667;SDS011;34453;52.198;5.004;2023-04-27T13:18:32;6.47;;;3.55;;
48667;SDS011;34453;52.198;5.004;2023-04-27T13:20:58;3.33;;;3.03;;
48667;SDS011;34453;52.198;5.004;2023-04-27T13:23:23;4.97;;;2.97;;
48667;SDS011;34453;52.198;5.004;2023-04-27T13:25:50;3.08;;;2.78;;
48667;SDS011;34453;52.198;5.004;2023-04-27T13:28:16;4.60;;;3.05;;
48667;SDS011;34453;52.198;5.004;2023-04-27T13:30:41;2.95;;;2.75;;
48667;SDS011;34453;52.198;5.004;2023-04-27T13:33:09;9.02;;;3.33;;
48667;SDS011;34453;52.198;5.004;2023-04-27T13:35:36;4.95;;;3.50;;
48667;SDS011;34453;52.198;5.004;2023-04-27T13:38:02;5.65;;;3.33;;
48667;SDS011;34453;52.198;5.004;2023-04-27T13:40:27;5.60;;;3.30;;
48667;SDS011;34453;52.198;5.004;2023-04-27T13:42:53;4.05;;;3.08;;
48667;SDS011;34453;52.198;5.004;2023-04-27T13:45:18;2.72;;;2.53;;
48667;SDS011;34453;52.198;5.004;2023-04-27T13:47:45;4.32;;;3.72;;
48667;SDS011;34453;52.198;5.004;2023-04-27T13:50:11;3.97;;;3.45;;
48667;SDS011;34453;52.198;5.004;2023-04-27T13:52:37;4.88;;;3.42;;
48667;SDS011;34453;52.198;5.004;2023-04-27T13:55:03;5.45;;;3.58;;
48667;SDS011;34453;52.198;5.004;2023-04-27T13:57:30;3.20;;;3.00;;
48667;SDS011;34453;52.198;5.004;2023-04-27T13:59:56;3.78;;;3.47;;
48667;SDS011;34453;52.198;5.004;2023-04-27T14:02:24;5.68;;;3.15;;
48667;SDS011;34453;52.198;5.004;2023-04-27T14:04:51;5.68;;;3.65;;
48667;SDS011;34453;52.198;5.004;2023-04-27T14:07:17;4.22;;;3.35;;
48667;SDS011;34453;52.198;5.004;2023-04-27T14:09:43;6.40;;;3.22;;
48667;SDS011;34453;52.198;5.004;2023-04-27T14:12:08;4.18;;;3.55;;
48667;SDS011;34453;52.198;5.004;2023-04-27T14:14:34;4.97;;;4.45;;
48667;SDS011;34453;52.198;5.004;2023-04-27T14:17:00;4.70;;;3.60;;
48667;SDS011;34453;52.198;5.004;2023-04-27T14:19:26;3.42;;;3.08;;
48667;SDS011;34453;52.198;5.004;2023-04-27T14:21:51;5.45;;;3.83;;
48667;SDS011;34453;52.198;5.004;2023-04-27T14:24:17;4.10;;;3.80;;
48667;SDS011;34453;52.198;5.004;2023-04-27T14:26:42;3.13;;;2.92;;
48667;SDS011;34453;52.198;5.004;2023-04-27T14:29:10;7.50;;;3.15;;
48667;SDS011;34453;52.198;5.004;2023-04-27T14:31:36;3.70;;;3.47;;
48667;SDS011;34453;52.198;5.004;2023-04-27T14:34:03;4.00;;;3.13;;
48667;SDS011;34453;52.198;5.004;2023-04-27T14:36:28;3.70;;;3.40;;
48667;SDS011;34453;52.198;5.004;2023-04-27T14:38:56;3.97;;;3.40;;
48667;SDS011;34453;52.198;5.004;2023-04-27T14:41:22;6.55;;;3.20;;
48667;SDS011;34453;52.198;5.004;2023-04-27T14:43:47;4.25;;;3.45;;
48667;SDS011;34453;52.198;5.004;2023-04-27T14:46:13;3.60;;;2.92;;
48667;SDS011;34453;52.198;5.004;2023-04-27T14:48:40;3.25;;;2.95;;
48667;SDS011;34453;52.198;5.004;2023-04-27T14:51:06;5.80;;;3.28;;
48667;SDS011;34453;52.198;5.004;2023-04-27T14:53:31;4.60;;;2.97;;
48667;SDS011;34453;52.198;5.004;2023-04-27T14:55:57;4.32;;;3.15;;
48667;SDS011;34453;52.198;5.004;2023-04-27T14:58:22;3.10;;;2.80;;
48667;SDS011;34453;52.198;5.004;2023-04-27T15:00:48;3.90;;;3.60;;
48667;SDS011;34453;52.198;5.004;2023-04-27T15:03:14;5.68;;;2.95;;
48667;SDS011;34453;52.198;5.004;2023-04-27T15:05:41;5.55;;;3.08;;
48667;SDS011;34453;52.198;5.004;2023-04-27T15:08:07;4.35;;;3.67;;